Time;durP1;ratioP1;P1;durP2;ratioP2;P2;SDS_P1;SDS_P2;PMS_P1;PMS_P2;Temp;Humidity;BMP_temperature;BMP_pressure;BME280_temperature;BME280_humidity;BME280_pressure;Samples;Min_cycle;Max_cycle;Signal;HPM_P1;HPM_P2
2020/12/26 00:01:10;;;;;;;1.00;0.80;;;10.10;81.40;;;;;;5013094;28;20053;-42
2020/12/26 00:03:36;;;;;;;2.22;1.15;;;10.10;81.40;;;;;;5013867;28;20057;-52
2020/12/26 00:06:02;;;;;;;1.00;0.70;;;10.10;81.40;;;;;;5013062;28;20115;-47
2020/12/26 00:08:28;;;;;;;1.08;0.80;;;10.10;81.50;;;;;;5012890;28;20056;-53
2020/12/26 00:10:53;;;;;;;0.70;0.70;;;10.10;81.40;;;;;;5013975;28;20410;-47
2020/12/26 00:13:19;;;;;;;1.65;0.95;;;10.10;81.40;;;;;;5013096;28;20471;-46
2020/12/26 00:15:45;;;;;;;1.35;0.90;;;10.10;81.40;;;;;;5012828;28;20080;-55
2020/12/26 00:18:10;;;;;;;0.98;0.80;;;10.10;81.40;;;;;;5012469;28;20054;-48
2020/12/26 00:20:36;;;;;;;0.98;0.85;;;10.10;81.40;;;;;;5013939;28;20060;-49
2020/12/26 00:23:02;;;;;;;1.58;1.10;;;10.10;81.40;;;;;;5024474;28;20049;-47
2020/12/26 00:25:27;;;;;;;0.63;0.57;;;10.00;81.30;;;;;;5025517;28;20057;-51
2020/12/26 00:27:53;;;;;;;2.58;1.00;;;10.10;81.40;;;;;;5012418;28;20513;-43
2020/12/26 00:30:19;;;;;;;1.02;0.93;;;10.10;81.40;;;;;;5024668;28;20127;-53
2020/12/26 00:32:44;;;;;;;1.58;1.10;;;10.10;81.40;;;;;;5031789;28;20187;-51
2020/12/26 00:35:10;;;;;;;1.10;0.90;;;10.10;81.40;;;;;;5022784;28;20502;-52
2020/12/26 00:37:36;;;;;;;1.55;0.82;;;10.00;81.40;;;;;;5036411;28;20049;-52
2020/12/26 00:40:02;;;;;;;1.42;1.08;;;10.10;81.40;;;;;;5018948;28;20060;-46
2020/12/26 00:42:27;;;;;;;1.65;0.90;;;10.00;81.40;;;;;;5017699;28;20050;-53
2020/12/26 00:44:53;;;;;;;0.60;0.55;;;10.10;81.40;;;;;;5016585;28;20104;-47
2020/12/26 00:47:19;;;;;;;0.98;0.80;;;10.10;81.40;;;;;;5029097;28;20490;-51
2020/12/26 00:49:44;;;;;;;1.20;0.90;;;10.10;81.40;;;;;;5035548;28;20060;-53
2020/12/26 00:52:10;;;;;;;0.60;0.60;;;10.10;81.40;;;;;;5034338;28;20041;-40
2020/12/26 00:54:36;;;;;;;1.55;1.02;;;10.00;81.40;;;;;;5030309;28;20088;-49
2020/12/26 00:57:01;;;;;;;1.25;0.90;;;10.10;81.50;;;;;;5016156;28;20052;-49
2020/12/26 00:59:27;;;;;;;1.23;1.00;;;10.00;81.40;;;;;;5021860;28;20053;-43
2020/12/26 01:01:54;;;;;;;1.08;0.95;;;10.00;81.40;;;;;;5034214;28;20057;-45
2020/12/26 01:04:20;;;;;;;1.23;1.08;;;10.10;81.40;;;;;;5015990;28;20494;-44
2020/12/26 01:06:54;;;;;;;1.10;0.88;;;10.00;81.40;;;;;;5030321;28;20107;-45
2020/12/26 01:09:23;;;;;;;1.33;0.77;;;10.10;81.50;;;;;;5033103;28;20046;-45
2020/12/26 01:11:50;;;;;;;1.13;0.93;;;10.00;81.40;;;;;;5035546;28;20096;-45
2020/12/26 01:14:16;;;;;;;1.55;1.00;;;10.00;81.40;;;;;;5034136;28;20050;-53
2020/12/26 01:16:43;;;;;;;1.90;0.88;;;10.00;81.50;;;;;;5034251;28;20451;-49
2020/12/26 01:19:09;;;;;;;0.85;0.85;;;10.10;81.60;;;;;;5016018;28;20050;-50
2020/12/26 01:21:34;;;;;;;0.63;0.63;;;10.00;81.40;;;;;;5015341;28;20100;-47
2020/12/26 01:24:00;;;;;;;0.70;0.70;;;10.00;81.50;;;;;;5033644;28;20128;-53
2020/12/26 01:26:26;;;;;;;1.15;0.82;;;10.00;81.50;;;;;;5022982;28;20058;-53
2020/12/26 01:28:51;;;;;;;1.15;1.05;;;10.00;81.50;;;;;;5015776;28;20049;-52
2020/12/26 01:31:17;;;;;;;0.98;0.65;;;10.10;81.50;;;;;;5016040;28;20077;-51
2020/12/26 01:33:43;;;;;;;1.35;0.93;;;10.00;81.50;;;;;;5027274;28;20100;-48
2020/12/26 01:36:12;;;;;;;1.15;0.98;;;10.00;81.50;;;;;;5015382;28;20478;-53
2020/12/26 01:38:39;;;;;;;0.98;0.90;;;10.00;81.60;;;;;;5023656;28;20050;-54
2020/12/26 01:41:05;;;;;;;1.45;1.10;;;10.00;81.50;;;;;;5035128;28;20041;-53
2020/12/26 01:43:31;;;;;;;1.05;0.88;;;10.00;81.50;;;;;;5035183;28;20084;-49
2020/12/26 01:45:57;;;;;;;1.52;0.90;;;10.00;81.60;;;;;;5033318;28;20135;-53
2020/12/26 01:48:24;;;;;;;0.80;0.80;;;10.00;81.60;;;;;;5034400;28;20100;-49
2020/12/26 01:50:51;;;;;;;1.15;1.02;;;10.00;81.60;;;;;;5034852;28;20056;-53
2020/12/26 01:53:18;;;;;;;0.70;0.70;;;10.00;81.60;;;;;;5029660;28;20038;-50
2020/12/26 01:55:47;;;;;;;1.27;0.88;;;10.00;81.60;;;;;;5032776;28;20049;-51
2020/12/26 01:58:14;;;;;;;0.77;0.73;;;10.00;81.60;;;;;;5035104;28;20133;-53
2020/12/26 02:00:41;;;;;;;0.80;0.70;;;10.00;81.50;;;;;;5034745;28;20050;-50
2020/12/26 02:03:08;;;;;;;0.82;0.70;;;10.00;81.60;;;;;;5021733;28;20050;-49
2020/12/26 02:05:34;;;;;;;1.20;0.90;;;10.00;81.60;;;;;;5015950;28;20075;-45
2020/12/26 02:08:00;;;;;;;1.20;0.80;;;10.00;81.60;;;;;;5014392;28;20081;-50
2020/12/26 02:10:26;;;;;;;1.45;0.75;;;10.00;81.60;;;;;;5014617;28;20081;-49
2020/12/26 02:12:51;;;;;;;1.83;0.90;;;10.00;81.60;;;;;;5027463;28;20048;-48
2020/12/26 02:15:17;;;;;;;1.48;0.98;;;10.00;81.60;;;;;;5034879;28;20160;-53
2020/12/26 02:17:42;;;;;;;1.10;0.90;;;10.00;81.60;;;;;;5032318;28;20052;-50
2020/12/26 02:20:08;;;;;;;0.77;0.73;;;10.00;81.60;;;;;;5016502;28;20062;-47
2020/12/26 02:22:34;;;;;;;0.75;0.75;;;10.00;81.60;;;;;;5014470;28;20056;-52
2020/12/26 02:25:00;;;;;;;0.70;0.55;;;10.00;81.60;;;;;;5029128;28;20061;-50
2020/12/26 02:27:26;;;;;;;0.80;0.75;;;10.00;81.60;;;;;;5032148;28;20136;-51
2020/12/26 02:29:51;;;;;;;0.70;0.68;;;10.00;81.60;;;;;;5033910;28;20049;-50
2020/12/26 02:32:17;;;;;;;1.13;0.77;;;10.00;81.60;;;;;;5029703;28;20479;-52
2020/12/26 02:34:43;;;;;;;0.65;0.63;;;10.00;81.60;;;;;;5014486;28;20494;-52
2020/12/26 02:37:08;;;;;;;1.08;0.63;;;10.00;81.60;;;;;;5029205;28;20045;-50
2020/12/26 02:39:34;;;;;;;0.60;0.60;;;10.00;81.60;;;;;;5032551;28;20042;-49
2020/12/26 02:42:00;;;;;;;0.55;0.50;;;10.00;81.60;;;;;;5024019;28;20137;-48
2020/12/26 02:44:26;;;;;;;1.25;0.90;;;10.00;81.60;;;;;;5014090;28;20042;-50
2020/12/26 02:46:52;;;;;;;0.98;0.80;;;10.00;81.60;;;;;;5014063;28;20050;-49
2020/12/26 02:49:18;;;;;;;2.17;0.77;;;10.00;81.60;;;;;;5014980;28;20053;-42
2020/12/26 02:51:45;;;;;;;1.05;0.60;;;10.00;82.20;;;;;;5015168;28;20125;-40
2020/12/26 02:54:11;;;;;;;1.08;0.80;;;10.00;81.60;;;;;;5028131;28;20045;-52
2020/12/26 02:56:40;;;;;;;0.73;0.60;;;10.00;81.60;;;;;;5014941;28;20407;-54
2020/12/26 02:59:07;;;;;;;0.77;0.77;;;10.00;81.60;;;;;;5014523;28;20037;-53
2020/12/26 03:01:34;;;;;;;0.57;0.57;;;10.00;81.60;;;;;;5013847;28;20068;-43
2020/12/26 03:04:00;;;;;;;0.60;0.60;;;10.00;81.60;;;;;;5033528;28;20073;-52
2020/12/26 03:06:26;;;;;;;0.90;0.70;;;10.00;81.60;;;;;;5033710;28;20486;-52
2020/12/26 03:08:51;;;;;;;0.60;0.47;;;10.00;81.60;;;;;;5021133;28;20167;-50
2020/12/26 03:11:17;;;;;;;0.80;0.70;;;10.00;81.60;;;;;;5033616;28;20056;-49
2020/12/26 03:13:42;;;;;;;1.48;0.80;;;10.00;81.60;;;;;;5031471;28;20227;-54
2020/12/26 03:16:08;;;;;;;0.52;0.52;;;10.00;81.60;;;;;;5033384;28;20486;-53
2020/12/26 03:18:34;;;;;;;0.95;0.60;;;10.00;81.60;;;;;;5032846;28;20409;-53
2020/12/26 03:20:59;;;;;;;0.60;0.60;;;10.00;81.60;;;;;;5032911;28;20049;-53
2020/12/26 03:23:25;;;;;;;0.68;0.65;;;10.00;81.60;;;;;;5031508;28;20091;-50
2020/12/26 03:25:51;;;;;;;0.73;0.73;;;10.00;81.70;;;;;;5033110;28;20046;-52
2020/12/26 03:28:16;;;;;;;0.80;0.80;;;10.00;81.70;;;;;;5032665;28;20057;-54
2020/12/26 03:30:42;;;;;;;1.42;0.80;;;10.00;81.60;;;;;;5030854;28;20049;-53
2020/12/26 03:33:07;;;;;;;0.60;0.60;;;10.00;81.70;;;;;;5018517;28;20041;-50
2020/12/26 03:35:33;;;;;;;0.55;0.55;;;10.00;81.70;;;;;;5031792;28;20065;-46
2020/12/26 03:37:59;;;;;;;0.60;0.60;;;10.00;81.70;;;;;;5021418;28;20050;-49
2020/12/26 03:40:24;;;;;;;1.02;0.60;;;10.00;81.70;;;;;;5012892;28;20127;-52
2020/12/26 03:42:50;;;;;;;0.60;0.50;;;10.00;81.70;;;;;;5023119;28;20172;-54
2020/12/26 03:45:16;;;;;;;0.68;0.68;;;10.00;81.70;;;;;;5031174;28;20091;-53
2020/12/26 03:47:41;;;;;;;0.73;0.70;;;10.00;81.70;;;;;;5015082;28;20134;-53
2020/12/26 03:50:07;;;;;;;0.77;0.70;;;10.00;81.60;;;;;;5025156;28;20143;-47
2020/12/26 03:52:32;;;;;;;0.77;0.60;;;10.00;81.70;;;;;;5032546;28;20119;-55
2020/12/26 03:54:58;;;;;;;0.60;0.60;;;10.00;81.60;;;;;;5030881;28;20041;-50
2020/12/26 03:57:24;;;;;;;0.80;0.70;;;10.00;81.70;;;;;;5032436;28;20096;-51
2020/12/26 03:59:49;;;;;;;1.00;0.73;;;10.00;81.70;;;;;;5033086;28;20050;-50
2020/12/26 04:02:15;;;;;;;0.90;0.63;;;10.00;81.60;;;;;;5019865;28;20398;-48
2020/12/26 04:04:41;;;;;;;1.20;0.40;;;10.00;81.70;;;;;;5013269;28;20049;-47
2020/12/26 04:07:07;;;;;;;0.60;0.60;;;10.00;81.70;;;;;;5017924;28;20069;-54
2020/12/26 04:09:32;;;;;;;0.80;0.80;;;10.00;81.70;;;;;;5033276;28;20526;-46
2020/12/26 04:11:58;;;;;;;0.60;0.60;;;10.00;81.70;;;;;;5036480;28;20077;-50
2020/12/26 04:14:24;;;;;;;0.90;0.70;;;10.00;81.60;;;;;;5036710;28;20064;-51
2020/12/26 04:16:57;;;;;;;1.08;0.60;;;10.00;81.70;;;;;;5035118;28;20041;-51
2020/12/26 04:19:23;;;;;;;0.55;0.50;;;10.00;81.70;;;;;;5036617;28;20397;-47
2020/12/26 04:21:49;;;;;;;0.82;0.68;;;10.00;81.70;;;;;;5034139;28;20411;-52
2020/12/26 04:24:15;;;;;;;0.52;0.52;;;10.00;81.70;;;;;;5016526;28;20049;-53
2020/12/26 04:26:40;;;;;;;0.70;0.70;;;10.00;81.70;;;;;;5027339;28;20068;-50
2020/12/26 04:29:07;;;;;;;1.02;0.80;;;9.90;81.60;;;;;;5036105;28;20106;-50
2020/12/26 04:31:32;;;;;;;1.73;0.60;;;9.90;81.60;;;;;;5030898;28;20050;-54
2020/12/26 04:33:58;;;;;;;0.93;0.63;;;10.00;81.70;;;;;;5016565;28;20123;-53
2020/12/26 04:36:24;;;;;;;0.98;0.80;;;10.00;81.70;;;;;;5016295;28;20050;-52
2020/12/26 04:38:49;;;;;;;0.90;0.63;;;9.90;81.60;;;;;;5017584;28;20502;-53
2020/12/26 04:41:18;;;;;;;0.63;0.50;;;10.00;81.60;;;;;;5016472;28;20129;-48
2020/12/26 04:43:44;;;;;;;0.50;0.50;;;10.00;81.70;;;;;;5033575;28;20562;-53
2020/12/26 04:46:18;;;;;;;0.65;0.50;;;9.90;81.60;;;;;;5019829;28;20068;-51
2020/12/26 04:49:00;;;;;;;0.52;0.50;;;10.00;81.60;;;;;;5027686;28;20053;-45
2020/12/26 04:51:26;;;;;;;0.38;0.38;;;10.00;81.70;;;;;;5036236;28;20049;-55
2020/12/26 04:53:53;;;;;;;2.17;0.77;;;10.00;81.60;;;;;;5023873;28;20050;-52
2020/12/26 04:56:23;;;;;;;0.63;0.55;;;9.90;81.60;;;;;;5016027;28;20057;-49
2020/12/26 04:58:49;;;;;;;0.55;0.55;;;10.00;82.30;;;;;;5031922;28;20077;-51
2020/12/26 05:01:16;;;;;;;0.60;0.60;;;10.00;81.70;;;;;;5035998;28;20050;-43
2020/12/26 05:03:44;;;;;;;0.60;0.52;;;10.00;81.60;;;;;;5035569;28;20045;-43
2020/12/26 05:06:12;;;;;;;0.60;0.60;;;9.90;81.60;;;;;;5035786;28;20486;-52
2020/12/26 05:08:38;;;;;;;0.57;0.57;;;10.00;81.70;;;;;;5032569;28;20072;-53
2020/12/26 05:11:04;;;;;;;0.57;0.57;;;9.90;81.70;;;;;;5035874;28;20057;-52
2020/12/26 05:13:29;;;;;;;0.90;0.60;;;10.00;81.60;;;;;;5019642;28;20042;-50
2020/12/26 05:15:56;;;;;;;1.15;0.80;;;9.90;81.70;;;;;;5016056;28;20490;-49
2020/12/26 05:18:22;;;;;;;1.13;0.68;;;9.90;81.60;;;;;;5029666;28;20124;-50
2020/12/26 05:20:48;;;;;;;0.50;0.50;;;10.00;81.70;;;;;;5033072;28;20176;-53
2020/12/26 05:23:16;;;;;;;0.57;0.57;;;10.00;81.70;;;;;;5035697;28;20099;-40
2020/12/26 05:25:46;;;;;;;1.05;0.68;;;9.90;81.70;;;;;;5035324;28;20046;-50
2020/12/26 05:28:19;;;;;;;0.50;0.50;;;9.90;81.70;;;;;;5025122;28;20107;-46
2020/12/26 05:30:50;;;;;;;1.13;0.90;;;9.90;81.70;;;;;;5033578;28;20065;-48
2020/12/26 05:33:16;;;;;;;0.50;0.50;;;9.90;81.70;;;;;;5035368;28;20076;-43
2020/12/26 05:35:43;;;;;;;1.23;0.52;;;9.90;81.60;;;;;;5026974;28;20125;-45
2020/12/26 05:38:20;;;;;;;0.68;0.60;;;10.00;81.70;;;;;;5027760;28;20169;-47
2020/12/26 05:40:53;;;;;;;0.80;0.80;;;9.90;81.60;;;;;;5033610;28;20402;-50
2020/12/26 05:43:23;;;;;;;0.73;0.57;;;9.90;82.30;;;;;;5029945;28;20045;-50
2020/12/26 05:45:50;;;;;;;0.77;0.52;;;9.90;81.70;;;;;;5015650;28;20062;-49
2020/12/26 05:48:17;;;;;;;0.40;0.40;;;9.90;81.70;;;;;;5016331;28;20046;-52
2020/12/26 05:50:43;;;;;;;0.63;0.60;;;9.90;81.70;;;;;;5015044;28;20446;-40
2020/12/26 05:53:13;;;;;;;0.40;0.40;;;9.90;81.70;;;;;;5016185;28;20050;-50
2020/12/26 05:55:46;;;;;;;0.45;0.43;;;9.90;81.60;;;;;;5013229;28;20052;-50
2020/12/26 05:58:19;;;;;;;0.40;0.40;;;9.90;81.70;;;;;;5030022;28;20458;-47
2020/12/26 06:00:45;;;;;;;2.22;0.60;;;9.90;81.70;;;;;;5034649;28;20080;-50
2020/12/26 06:03:26;;;;;;;0.88;0.60;;;9.90;81.60;;;;;;5033051;28;20091;-52
2020/12/26 06:06:06;;;;;;;0.70;0.55;;;9.90;81.60;;;;;;5034269;28;20053;-53
2020/12/26 06:08:32;;;;;;;0.70;0.60;;;9.90;81.70;;;;;;5030747;28;20077;-53
2020/12/26 06:10:59;;;;;;;0.50;0.50;;;9.90;81.70;;;;;;5014829;28;20120;-48
2020/12/26 06:13:27;;;;;;;0.60;0.52;;;9.90;81.60;;;;;;5027496;28;20049;-51
2020/12/26 06:16:01;;;;;;;0.75;0.70;;;9.90;81.60;;;;;;5034450;28;20125;-50
2020/12/26 06:18:31;;;;;;;0.60;0.60;;;9.90;81.60;;;;;;5034226;28;20052;-53
2020/12/26 06:20:57;;;;;;;0.80;0.70;;;9.90;81.70;;;;;;5034435;28;20049;-45
2020/12/26 06:23:24;;;;;;;0.70;0.70;;;9.90;81.60;;;;;;5020135;28;20056;-49
2020/12/26 06:25:52;;;;;;;0.80;0.60;;;9.90;82.30;;;;;;5025255;28;20141;-49
2020/12/26 06:28:26;;;;;;;0.65;0.65;;;9.90;81.70;;;;;;5027066;28;20060;-49
2020/12/26 06:30:58;;;;;;;1.05;0.80;;;9.90;81.70;;;;;;5014104;28;20074;-52
2020/12/26 06:33:26;;;;;;;0.82;0.63;;;9.90;81.70;;;;;;5027147;28;20121;-50
2020/12/26 06:35:57;;;;;;;0.60;0.60;;;9.90;81.70;;;;;;5033123;28;20136;-50
2020/12/26 06:38:28;;;;;;;0.93;0.80;;;9.90;81.70;;;;;;5019852;28;20052;-51
2020/12/26 06:41:02;;;;;;;1.00;0.77;;;9.90;81.70;;;;;;5034183;28;20050;-50
2020/12/26 06:43:43;;;;;;;0.93;0.80;;;9.90;81.70;;;;;;5018191;28;20100;-52
2020/12/26 06:46:21;;;;;;;1.27;0.70;;;9.90;81.70;;;;;;5014821;28;20045;-45
2020/12/26 06:48:51;;;;;;;1.13;0.73;;;9.90;81.70;;;;;;5015215;28;20177;-49
2020/12/26 06:51:34;;;;;;;1.88;0.75;;;9.90;81.70;;;;;;5014107;28;20054;-53
2020/12/26 06:54:02;;;;;;;0.60;0.60;;;9.90;81.70;;;;;;5030806;28;20045;-48
2020/12/26 06:56:34;;;;;;;0.70;0.57;;;9.90;81.70;;;;;;5032052;28;20128;-44
2020/12/26 06:59:04;;;;;;;1.02;0.90;;;9.90;81.70;;;;;;5021565;28;20073;-48
2020/12/26 07:01:30;;;;;;;0.75;0.70;;;9.90;81.70;;;;;;5013458;28;20045;-52
2020/12/26 07:04:11;;;;;;;0.90;0.73;;;9.90;81.70;;;;;;5033392;28;20045;-51
2020/12/26 07:06:37;;;;;;;0.75;0.52;;;9.90;81.70;;;;;;5031589;28;20055;-48
2020/12/26 07:09:04;;;;;;;0.75;0.70;;;9.90;81.70;;;;;;5013709;28;20490;-49
2020/12/26 07:11:30;;;;;;;1.98;0.80;;;9.90;81.70;;;;;;5013807;28;20131;-52
2020/12/26 07:13:57;;;;;;;0.93;0.88;;;9.90;81.70;;;;;;5016581;28;20045;-51
2020/12/26 07:16:36;;;;;;;0.70;0.70;;;9.90;81.70;;;;;;5031566;28;20049;-49
2020/12/26 07:19:19;;;;;;;0.70;0.60;;;9.90;81.70;;;;;;5030659;28;20125;-53
2020/12/26 07:21:49;;;;;;;1.10;0.80;;;9.90;81.70;;;;;;5013785;28;20052;-46
2020/12/26 07:24:16;;;;;;;0.70;0.70;;;9.90;81.70;;;;;;5017977;28;20397;-52
2020/12/26 07:26:42;;;;;;;0.68;0.63;;;9.90;81.70;;;;;;5031215;28;20390;-51
2020/12/26 07:29:18;;;;;;;0.95;0.90;;;9.90;81.70;;;;;;5013891;28;20049;-53
2020/12/26 07:31:47;;;;;;;1.55;0.98;;;9.90;81.70;;;;;;5013122;28;20464;-52
2020/12/26 07:34:38;;;;;;;2.15;0.85;;;9.90;81.70;;;;;;5017514;28;20452;-53
2020/12/26 07:37:05;;;;;;;0.60;0.60;;;9.90;81.70;;;;;;5030887;28;20054;-51
2020/12/26 07:39:31;;;;;;;0.85;0.82;;;9.90;81.70;;;;;;5024957;28;20073;-49
2020/12/26 07:41:56;;;;;;;0.93;0.82;;;9.90;81.70;;;;;;5013122;28;20498;-50
2020/12/26 07:44:31;;;;;;;0.70;0.70;;;9.90;81.70;;;;;;5013178;28;20042;-52
2020/12/26 07:46:57;;;;;;;1.10;0.87;;;9.90;81.70;;;;;;5016726;28;20085;-53
2020/12/26 07:49:24;;;;;;;0.90;0.50;;;9.90;81.70;;;;;;5030257;28;20084;-45
2020/12/26 07:52:09;;;;;;;0.98;0.82;;;9.90;81.80;;;;;;5012211;28;20042;-52
2020/12/26 07:54:35;;;;;;;1.23;0.90;;;9.90;81.70;;;;;;5012849;28;20064;-49
2020/12/26 07:57:02;;;;;;;1.00;0.90;;;9.90;81.70;;;;;;5016187;28;20091;-43
2020/12/26 07:59:28;;;;;;;0.70;0.70;;;9.90;81.80;;;;;;5026955;28;20045;-51
2020/12/26 08:01:57;;;;;;;1.08;0.88;;;9.90;81.80;;;;;;5021763;28;20049;-49
2020/12/26 08:04:23;;;;;;;1.33;0.85;;;9.90;81.80;;;;;;5032848;28;20047;-49
2020/12/26 08:06:50;;;;;;;1.17;0.90;;;9.90;81.80;;;;;;5016530;28;20078;-47
2020/12/26 08:09:17;;;;;;;0.70;0.70;;;9.90;81.80;;;;;;5013112;28;20054;-50
2020/12/26 08:11:45;;;;;;;0.77;0.77;;;9.90;81.80;;;;;;5013111;28;20125;-50
2020/12/26 08:14:13;;;;;;;1.02;0.93;;;9.90;81.80;;;;;;5013023;28;20053;-49
2020/12/26 08:16:39;;;;;;;0.95;0.95;;;9.90;81.80;;;;;;5012935;28;20121;-52
2020/12/26 08:19:05;;;;;;;1.40;0.90;;;9.90;81.80;;;;;;5029353;28;20144;-48
2020/12/26 08:21:33;;;;;;;2.15;0.90;;;9.90;81.80;;;;;;5032588;28;20057;-51
2020/12/26 08:24:02;;;;;;;1.10;1.00;;;9.90;81.80;;;;;;5032573;28;20502;-42
2020/12/26 08:26:29;;;;;;;0.80;0.80;;;9.90;81.80;;;;;;5032356;28;20527;-43
2020/12/26 08:29:03;;;;;;;1.17;1.00;;;9.90;81.70;;;;;;5032531;28;20053;-43
2020/12/26 08:31:31;;;;;;;0.95;0.75;;;9.90;81.80;;;;;;5032761;28;20073;-39
2020/12/26 08:34:12;;;;;;;0.70;0.70;;;9.90;81.80;;;;;;5032380;28;20081;-42
2020/12/26 08:36:41;;;;;;;0.90;0.80;;;9.90;81.80;;;;;;5032608;28;20056;-40
2020/12/26 08:39:08;;;;;;;1.00;0.73;;;9.90;81.80;;;;;;5032811;28;20073;-44
2020/12/26 08:41:40;;;;;;;0.60;0.60;;;9.90;81.80;;;;;;5032552;28;20049;-41
2020/12/26 08:44:13;;;;;;;0.98;0.70;;;9.90;81.70;;;;;;5032198;28;20517;-38
2020/12/26 08:46:45;;;;;;;1.25;0.75;;;9.90;81.70;;;;;;5024959;28;20046;-40
2020/12/26 08:49:12;;;;;;;0.95;0.70;;;9.90;81.70;;;;;;5016932;28;20494;-37
2020/12/26 08:51:42;;;;;;;0.73;0.70;;;9.90;81.70;;;;;;5015866;28;20442;-40
2020/12/26 08:54:22;;;;;;;0.70;0.70;;;9.90;81.70;;;;;;5031573;28;20073;-38
2020/12/26 08:56:49;;;;;;;1.15;0.90;;;9.90;81.70;;;;;;5034577;28;20053;-37
2020/12/26 08:59:26;;;;;;;0.77;0.75;;;9.90;81.70;;;;;;5035595;28;20053;-51
2020/12/26 09:01:55;;;;;;;2.33;0.80;;;9.90;81.70;;;;;;5035949;28;20056;-43
2020/12/26 09:04:22;;;;;;;1.20;0.75;;;9.90;81.70;;;;;;5035327;28;20136;-43
2020/12/26 09:06:47;;;;;;;0.68;0.68;;;9.90;81.70;;;;;;5035931;28;20045;-44
2020/12/26 09:09:18;;;;;;;0.75;0.75;;;9.90;81.70;;;;;;5035919;28;20049;-41
2020/12/26 09:12:03;;;;;;;1.00;0.70;;;9.90;81.70;;;;;;5035631;28;20477;-43
2020/12/26 09:14:28;;;;;;;0.70;0.70;;;9.90;81.70;;;;;;5035766;28;20042;-43
2020/12/26 09:17:02;;;;;;;1.10;1.00;;;9.90;81.70;;;;;;5035805;28;20076;-47
2020/12/26 09:19:41;;;;;;;1.13;0.65;;;9.90;81.70;;;;;;5035328;28;20053;-49
2020/12/26 09:22:12;;;;;;;0.70;0.70;;;9.90;81.60;;;;;;5035231;28;20505;-45
2020/12/26 09:24:38;;;;;;;0.90;0.82;;;9.90;81.70;;;;;;5035611;28;20397;-49
2020/12/26 09:27:04;;;;;;;0.63;0.60;;;9.90;81.60;;;;;;5035036;28;20546;-46
2020/12/26 09:29:30;;;;;;;1.25;1.15;;;9.80;81.50;;;;;;5035468;28;20076;-51
2020/12/26 09:31:55;;;;;;;0.77;0.70;;;9.90;81.60;;;;;;5035077;28;20485;-50
2020/12/26 09:34:25;;;;;;;0.70;0.70;;;9.90;81.60;;;;;;5031311;28;20045;-47
2020/12/26 09:37:10;;;;;;;1.48;0.63;;;9.90;81.60;;;;;;5028200;28;20061;-42
2020/12/26 09:39:37;;;;;;;1.20;0.73;;;9.90;81.60;;;;;;5010705;28;20140;-42
2020/12/26 09:42:03;;;;;;;1.02;0.93;;;9.90;81.60;;;;;;5025885;28;20064;-41
2020/12/26 09:44:28;;;;;;;0.70;0.70;;;9.90;81.60;;;;;;5030200;28;20046;-42
2020/12/26 09:46:59;;;;;;;1.48;0.90;;;9.90;81.60;;;;;;5029341;28;20046;-40
2020/12/26 09:49:24;;;;;;;1.40;0.68;;;9.90;81.60;;;;;;5030140;28;20071;-46
2020/12/26 09:51:50;;;;;;;0.52;0.52;;;9.90;81.60;;;;;;5029802;28;20049;-38
2020/12/26 09:54:16;;;;;;;0.95;0.85;;;9.90;81.60;;;;;;5028823;28;20076;-41
2020/12/26 09:56:42;;;;;;;0.82;0.75;;;9.90;81.60;;;;;;5029367;28;20576;-40
2020/12/26 09:59:08;;;;;;;0.90;0.90;;;9.90;81.60;;;;;;5029540;28;20045;-38
2020/12/26 10:01:39;;;;;;;1.95;1.13;;;9.90;81.60;;;;;;5029658;28;20498;-39
2020/12/26 10:04:05;;;;;;;0.77;0.77;;;9.90;81.60;;;;;;5028864;28;20060;-38
2020/12/26 10:06:30;;;;;;;1.42;0.88;;;9.90;81.60;;;;;;5028518;28;20460;-36
2020/12/26 10:08:56;;;;;;;1.70;1.00;;;9.90;81.60;;;;;;5028101;28;20139;-37
2020/12/26 10:11:22;;;;;;;1.23;0.98;;;9.90;81.60;;;;;;5029340;28;20136;-37
2020/12/26 10:13:48;;;;;;;0.80;0.80;;;9.90;81.60;;;;;;5028686;28;20049;-39
2020/12/26 10:16:18;;;;;;;0.95;0.88;;;9.90;81.60;;;;;;5030644;28;20053;-39
2020/12/26 10:18:44;;;;;;;1.05;0.90;;;9.90;81.60;;;;;;5043464;28;20148;-36
2020/12/26 10:21:14;;;;;;;1.08;0.93;;;9.90;81.60;;;;;;5050451;28;20408;-37
2020/12/26 10:23:40;;;;;;;0.57;0.57;;;9.90;81.60;;;;;;5040723;28;20050;-46
2020/12/26 10:26:06;;;;;;;0.80;0.80;;;9.90;81.50;;;;;;5032247;28;20493;-37
2020/12/26 10:28:33;;;;;;;1.58;0.70;;;9.90;81.50;;;;;;5052095;28;20055;-39
2020/12/26 10:30:59;;;;;;;0.73;0.70;;;10.00;81.60;;;;;;5043108;28;20049;-38
2020/12/26 10:33:26;;;;;;;1.05;0.82;;;9.90;81.60;;;;;;5033897;28;20052;-39
2020/12/26 10:35:51;;;;;;;0.90;0.85;;;9.90;81.50;;;;;;5034140;28;20133;-41
2020/12/26 10:38:17;;;;;;;0.80;0.80;;;9.90;81.60;;;;;;5022660;28;20464;-37
2020/12/26 10:40:43;;;;;;;0.70;0.70;;;9.90;81.60;;;;;;5031612;28;20099;-40
2020/12/26 10:43:08;;;;;;;1.23;0.75;;;9.90;81.50;;;;;;5033966;28;20047;-41
2020/12/26 10:45:34;;;;;;;1.08;1.00;;;9.90;81.60;;;;;;5032331;28;20512;-38
2020/12/26 10:47:59;;;;;;;1.25;0.70;;;9.90;81.60;;;;;;5034024;28;20452;-38
2020/12/26 10:50:25;;;;;;;1.63;0.90;;;9.90;81.50;;;;;;5033685;28;20057;-39
2020/12/26 10:52:51;;;;;;;0.80;0.77;;;9.90;81.50;;;;;;5033725;28;20499;-39
2020/12/26 10:55:17;;;;;;;0.80;0.70;;;9.90;81.60;;;;;;5032202;28;20504;-38
2020/12/26 10:57:43;;;;;;;0.68;0.60;;;9.90;81.50;;;;;;5033733;28;20045;-38
2020/12/26 11:00:13;;;;;;;0.70;0.70;;;9.90;81.60;;;;;;5033884;28;20053;-39
2020/12/26 11:02:39;;;;;;;0.70;0.70;;;9.90;81.50;;;;;;5033745;28;20056;-42
2020/12/26 11:05:05;;;;;;;0.70;0.70;;;9.90;81.60;;;;;;5033523;28;20049;-38
2020/12/26 11:07:34;;;;;;;0.73;0.73;;;9.90;81.60;;;;;;5031480;28;20417;-43
2020/12/26 11:10:00;;;;;;;1.25;0.80;;;9.90;81.60;;;;;;5033568;28;20053;-41
2020/12/26 11:12:26;;;;;;;1.00;0.80;;;9.90;81.50;;;;;;5033380;28;20057;-46
2020/12/26 11:14:52;;;;;;;0.50;0.50;;;9.90;81.50;;;;;;5033382;28;20481;-49
2020/12/26 11:17:18;;;;;;;0.73;0.70;;;9.90;81.50;;;;;;5031801;28;20052;-46
2020/12/26 11:19:44;;;;;;;0.98;0.75;;;9.90;81.50;;;;;;5032795;28;20520;-43
2020/12/26 11:22:09;;;;;;;1.05;0.70;;;9.90;81.50;;;;;;5020151;28;20054;-41
2020/12/26 11:24:35;;;;;;;0.68;0.68;;;9.90;82.20;;;;;;5033283;28;20069;-41
2020/12/26 11:27:01;;;;;;;0.77;0.77;;;9.90;81.50;;;;;;5031227;28;20111;-44
2020/12/26 11:29:27;;;;;;;1.20;0.90;;;9.90;81.50;;;;;;5033449;28;20499;-44
2020/12/26 11:31:56;;;;;;;0.77;0.63;;;9.90;81.50;;;;;;5033491;28;20164;-42
2020/12/26 11:34:22;;;;;;;0.73;0.60;;;9.90;81.50;;;;;;5033123;28;20421;-41
2020/12/26 11:36:47;;;;;;;1.20;0.70;;;9.90;81.50;;;;;;5033378;28;20045;-42
2020/12/26 11:39:13;;;;;;;0.75;0.70;;;9.90;81.50;;;;;;5032574;28;20183;-41
2020/12/26 11:41:39;;;;;;;1.83;0.80;;;9.90;81.50;;;;;;5033375;28;20049;-46
2020/12/26 11:44:04;;;;;;;0.60;0.60;;;9.90;81.50;;;;;;5033381;28;20413;-40
2020/12/26 11:46:30;;;;;;;0.98;0.80;;;9.90;81.50;;;;;;5033085;28;20513;-40
2020/12/26 11:48:56;;;;;;;0.88;0.70;;;9.90;81.50;;;;;;5033149;28;20077;-40
2020/12/26 11:51:22;;;;;;;1.83;0.93;;;9.90;81.40;;;;;;5033175;28;20061;-41
2020/12/26 11:53:47;;;;;;;1.00;0.90;;;9.90;81.40;;;;;;5032548;28;20046;-45
2020/12/26 11:56:15;;;;;;;0.80;0.80;;;9.90;81.40;;;;;;5032873;28;20408;-41
2020/12/26 11:58:42;;;;;;;0.68;0.52;;;9.90;81.40;;;;;;5033166;28;20049;-41
2020/12/26 12:01:08;;;;;;;1.38;0.85;;;9.90;81.40;;;;;;5032837;28;20073;-45
2020/12/26 12:03:35;;;;;;;0.63;0.63;;;9.90;81.40;;;;;;5017129;28;20057;-39
2020/12/26 12:06:02;;;;;;;0.70;0.60;;;9.90;81.40;;;;;;5007924;28;20370;-39
2020/12/26 12:08:27;;;;;;;0.70;0.70;;;9.90;81.40;;;;;;5007879;28;20093;-40
2020/12/26 12:10:53;;;;;;;1.45;0.85;;;9.90;81.40;;;;;;5007694;28;20079;-40
2020/12/26 12:13:19;;;;;;;0.93;0.75;;;9.90;81.50;;;;;;5008501;28;20103;-37
2020/12/26 12:15:45;;;;;;;0.70;0.57;;;9.90;81.40;;;;;;5016754;28;20060;-39
2020/12/26 12:18:11;;;;;;;0.98;0.88;;;9.90;81.40;;;;;;5027828;28;20045;-44
2020/12/26 12:20:37;;;;;;;0.65;0.60;;;9.90;81.40;;;;;;5026982;28;20567;-42
2020/12/26 12:23:03;;;;;;;0.82;0.82;;;10.00;81.40;;;;;;5027670;28;20057;-41
2020/12/26 12:25:30;;;;;;;0.70;0.70;;;9.90;81.30;;;;;;5027890;28;20160;-40
2020/12/26 12:27:56;;;;;;;0.70;0.70;;;9.90;81.40;;;;;;5027136;28;20057;-40
2020/12/26 12:30:22;;;;;;;1.60;0.60;;;10.00;81.40;;;;;;5028217;28;20053;-44
2020/12/26 12:32:48;;;;;;;0.60;0.60;;;9.90;81.30;;;;;;5031197;28;20126;-39
2020/12/26 12:35:14;;;;;;;0.63;0.63;;;9.90;81.30;;;;;;5031754;28;20132;-38
2020/12/26 12:37:40;;;;;;;0.93;0.82;;;10.00;81.40;;;;;;5029675;28;20054;-39
2020/12/26 12:40:06;;;;;;;0.60;0.60;;;9.90;81.40;;;;;;5020856;28;20449;-40
2020/12/26 12:42:32;;;;;;;0.98;0.68;;;10.00;81.40;;;;;;5017541;28;20405;-38
2020/12/26 12:44:58;;;;;;;0.70;0.65;;;10.00;81.40;;;;;;5031066;28;20060;-44
2020/12/26 12:47:25;;;;;;;1.10;0.70;;;10.00;81.40;;;;;;5013221;28;20053;-39
2020/12/26 12:49:51;;;;;;;1.33;0.90;;;9.90;81.40;;;;;;5031353;28;20080;-39
2020/12/26 12:52:18;;;;;;;0.65;0.65;;;10.00;81.40;;;;;;5031360;28;20053;-37
2020/12/26 12:54:44;;;;;;;0.88;0.85;;;10.00;81.40;;;;;;5030768;28;20562;-38